sensor_id;sensor_type;location;lat;lon;timestamp;temperature;humidity
8715;DHT22;4394;51.208;8.904;2023-01-24T00:01:09;3.60;99.90
8715;DHT22;4394;51.208;8.904;2023-01-24T00:03:57;3.50;99.90
8715;DHT22;4394;51.208;8.904;2023-01-24T00:06:47;3.60;99.90
8715;DHT22;4394;51.208;8.904;2023-01-24T00:09:35;3.60;99.90
8715;DHT22;4394;51.208;8.904;2023-01-24T00:12:23;3.60;99.90
8715;DHT22;4394;51.208;8.904;2023-01-24T00:15:11;3.60;99.90
8715;DHT22;4394;51.208;8.904;2023-01-24T00:17:59;3.60;99.90
8715;DHT22;4394;51.208;8.904;2023-01-24T00:20:47;3.60;99.90
8715;DHT22;4394;51.208;8.904;2023-01-24T00:23:37;3.60;99.90
8715;DHT22;4394;51.208;8.904;2023-01-24T00:26:26;3.60;99.90
8715;DHT22;4394;51.208;8.904;2023-01-24T00:29:14;3.50;99.90
8715;DHT22;4394;51.208;8.904;2023-01-24T00:32:02;3.50;99.90
8715;DHT22;4394;51.208;8.904;2023-01-24T00:34:50;3.50;99.90
8715;DHT22;4394;51.208;8.904;2023-01-24T00:37:38;3.60;99.90
8715;DHT22;4394;51.208;8.904;2023-01-24T00:40:28;3.60;99.90
8715;DHT22;4394;51.208;8.904;2023-01-24T00:43:16;3.60;99.90
8715;DHT22;4394;51.208;8.904;2023-01-24T00:46:06;3.60;99.90
8715;DHT22;4394;51.208;8.904;2023-01-24T00:48:55;3.60;99.90
8715;DHT22;4394;51.208;8.904;2023-01-24T00:51:43;3.40;99.90
8715;DHT22;4394;51.208;8.904;2023-01-24T00:54:31;3.60;99.90
8715;DHT22;4394;51.208;8.904;2023-01-24T00:57:20;3.60;99.90
8715;DHT22;4394;51.208;8.904;2023-01-24T01:00:11;3.50;99.90
8715;DHT22;4394;51.208;8.904;2023-01-24T01:03:00;3.50;99.90
8715;DHT22;4394;51.208;8.904;2023-01-24T01:05:48;3.50;99.90
8715;DHT22;4394;51.208;8.904;2023-01-24T01:08:36;3.40;99.90
8715;DHT22;4394;51.208;8.904;2023-01-24T01:11:24;3.50;99.90
8715;DHT22;4394;51.208;8.904;2023-01-24T01:14:13;3.50;99.90
8715;DHT22;4394;51.208;8.904;2023-01-24T01:17:01;3.50;99.90
8715;DHT22;4394;51.208;8.904;2023-01-24T01:19:50;3.50;99.90
8715;DHT22;4394;51.208;8.904;2023-01-24T01:22:38;3.50;99.90
8715;DHT22;4394;51.208;8.904;2023-01-24T01:25:26;3.50;99.90
8715;DHT22;4394;51.208;8.904;2023-01-24T01:28:14;3.50;99.90
8715;DHT22;4394;51.208;8.904;2023-01-24T01:31:04;3.40;99.90
8715;DHT22;4394;51.208;8.904;2023-01-24T01:33:52;3.40;99.90
8715;DHT22;4394;51.208;8.904;2023-01-24T01:36:40;3.50;99.90
8715;DHT22;4394;51.208;8.904;2023-01-24T01:39:28;3.50;99.90
8715;DHT22;4394;51.208;8.904;2023-01-24T01:42:16;3.50;99.90
8715;DHT22;4394;51.208;8.904;2023-01-24T01:45:33;3.50;99.90
8715;DHT22;4394;51.208;8.904;2023-01-24T01:48:28;3.50;99.90
8715;DHT22;4394;51.208;8.904;2023-01-24T01:51:19;3.50;99.90
8715;DHT22;4394;51.208;8.904;2023-01-24T01:54:12;3.50;99.90
8715;DHT22;4394;51.208;8.904;2023-01-24T01:57:04;3.50;99.90
8715;DHT22;4394;51.208;8.904;2023-01-24T01:59:56;3.50;99.90
8715;DHT22;4394;51.208;8.904;2023-01-24T02:02:49;3.50;99.90
8715;DHT22;4394;51.208;8.904;2023-01-24T02:05:39;3.50;99.90
8715;DHT22;4394;51.208;8.904;2023-01-24T02:08:28;3.50;99.90
8715;DHT22;4394;51.208;8.904;2023-01-24T02:11:17;3.50;99.90
8715;DHT22;4394;51.208;8.904;2023-01-24T02:14:23;3.50;99.90
8715;DHT22;4394;51.208;8.904;2023-01-24T02:17:30;3.50;99.90
8715;DHT22;4394;51.208;8.904;2023-01-24T02:20:26;3.50;99.90
8715;DHT22;4394;51.208;8.904;2023-01-24T02:23:24;3.50;99.90
8715;DHT22;4394;51.208;8.904;2023-01-24T02:26:19;3.50;99.90
8715;DHT22;4394;51.208;8.904;2023-01-24T02:29:11;3.50;99.90
8715;DHT22;4394;51.208;8.904;2023-01-24T02:32:01;3.40;99.90
8715;DHT22;4394;51.208;8.904;2023-01-24T02:34:50;3.40;99.90
8715;DHT22;4394;51.208;8.904;2023-01-24T02:37:38;3.40;99.90
8715;DHT22;4394;51.208;8.904;2023-01-24T02:40:27;3.40;99.90
8715;DHT22;4394;51.208;8.904;2023-01-24T02:43:17;3.40;99.90
8715;DHT22;4394;51.208;8.904;2023-01-24T02:46:07;3.50;99.90
8715;DHT22;4394;51.208;8.904;2023-01-24T02:48:55;3.50;99.90
8715;DHT22;4394;51.208;8.904;2023-01-24T02:51:43;3.40;99.90
8715;DHT22;4394;51.208;8.904;2023-01-24T02:54:49;3.30;99.90
8715;DHT22;4394;51.208;8.904;2023-01-24T02:57:37;3.30;99.90
8715;DHT22;4394;51.208;8.904;2023-01-24T03:00:44;3.30;99.90
8715;DHT22;4394;51.208;8.904;2023-01-24T03:03:32;3.30;99.90
8715;DHT22;4394;51.208;8.904;2023-01-24T03:06:20;3.30;99.90
8715;DHT22;4394;51.208;8.904;2023-01-24T03:09:08;3.30;99.90
8715;DHT22;4394;51.208;8.904;2023-01-24T03:12:07;3.30;99.90
8715;DHT22;4394;51.208;8.904;2023-01-24T03:15:12;3.30;99.90
8715;DHT22;4394;51.208;8.904;2023-01-24T03:18:19;3.30;99.90
8715;DHT22;4394;51.208;8.904;2023-01-24T03:21:24;3.30;99.90
8715;DHT22;4394;51.208;8.904;2023-01-24T03:24:30;3.30;99.90
8715;DHT22;4394;51.208;8.904;2023-01-24T03:27:36;3.30;99.90
8715;DHT22;4394;51.208;8.904;2023-01-24T03:30:41;3.30;99.90
8715;DHT22;4394;51.208;8.904;2023-01-24T03:33:48;3.30;99.90
8715;DHT22;4394;51.208;8.904;2023-01-24T03:36:53;3.30;99.90
8715;DHT22;4394;51.208;8.904;2023-01-24T03:39:41;3.30;99.90
8715;DHT22;4394;51.208;8.904;2023-01-24T03:42:45;3.30;99.90
8715;DHT22;4394;51.208;8.904;2023-01-24T03:45:37;3.30;99.90
8715;DHT22;4394;51.208;8.904;2023-01-24T03:48:26;3.40;99.90
8715;DHT22;4394;51.208;8.904;2023-01-24T03:51:24;3.40;99.90
8715;DHT22;4394;51.208;8.904;2023-01-24T03:54:29;3.40;99.90
8715;DHT22;4394;51.208;8.904;2023-01-24T03:57:18;3.30;99.90
8715;DHT22;4394;51.208;8.904;2023-01-24T04:00:07;3.30;99.90
8715;DHT22;4394;51.208;8.904;2023-01-24T04:02:56;3.30;99.90
8715;DHT22;4394;51.208;8.904;2023-01-24T04:05:46;3.30;99.90
8715;DHT22;4394;51.208;8.904;2023-01-24T04:08:35;3.30;99.90
8715;DHT22;4394;51.208;8.904;2023-01-24T04:11:23;3.30;99.90
8715;DHT22;4394;51.208;8.904;2023-01-24T04:14:11;3.30;99.90
8715;DHT22;4394;51.208;8.904;2023-01-24T04:16:59;3.30;99.90
8715;DHT22;4394;51.208;8.904;2023-01-24T04:19:47;3.40;99.90
8715;DHT22;4394;51.208;8.904;2023-01-24T04:22:35;3.30;99.90
8715;DHT22;4394;51.208;8.904;2023-01-24T04:25:25;3.30;99.90
8715;DHT22;4394;51.208;8.904;2023-01-24T04:28:13;3.30;99.90
8715;DHT22;4394;51.208;8.904;2023-01-24T04:31:02;3.10;99.90
8715;DHT22;4394;51.208;8.904;2023-01-24T04:33:50;3.30;99.90
8715;DHT22;4394;51.208;8.904;2023-01-24T04:36:38;3.30;99.90
8715;DHT22;4394;51.208;8.904;2023-01-24T04:39:26;3.20;99.90
8715;DHT22;4394;51.208;8.904;2023-01-24T04:42:16;3.10;99.90
8715;DHT22;4394;51.208;8.904;2023-01-24T04:45:05;3.20;99.90
8715;DHT22;4394;51.208;8.904;2023-01-24T04:47:53;3.30;99.90
8715;DHT22;4394;51.208;8.904;2023-01-24T04:50:41;3.30;99.90
8715;DHT22;4394;51.208;8.904;2023-01-24T04:53:29;3.20;99.90
8715;DHT22;4394;51.208;8.904;2023-01-24T04:56:17;3.20;99.90
8715;DHT22;4394;51.208;8.904;2023-01-24T04:59:07;3.20;99.90
8715;DHT22;4394;51.208;8.904;2023-01-24T05:01:55;3.00;99.90
8715;DHT22;4394;51.208;8.904;2023-01-24T05:04:43;3.00;99.90
8715;DHT22;4394;51.208;8.904;2023-01-24T05:07:31;3.20;99.90
8715;DHT22;4394;51.208;8.904;2023-01-24T05:10:19;3.20;99.90
8715;DHT22;4394;51.208;8.904;2023-01-24T05:13:08;3.20;99.90
8715;DHT22;4394;51.208;8.904;2023-01-24T05:15:57;3.20;99.90
8715;DHT22;4394;51.208;8.904;2023-01-24T05:18:45;3.20;99.90
8715;DHT22;4394;51.208;8.904;2023-01-24T05:21:34;3.20;99.90
8715;DHT22;4394;51.208;8.904;2023-01-24T05:24:22;3.20;99.90
8715;DHT22;4394;51.208;8.904;2023-01-24T05:27:10;3.20;99.90
8715;DHT22;4394;51.208;8.904;2023-01-24T05:29:58;3.40;99.90
8715;DHT22;4394;51.208;8.904;2023-01-24T05:32:48;3.30;99.90
8715;DHT22;4394;51.208;8.904;2023-01-24T05:35:36;3.30;99.90
8715;DHT22;4394;51.208;8.904;2023-01-24T05:38:25;3.20;99.90
8715;DHT22;4394;51.208;8.904;2023-01-24T05:41:16;3.20;99.90
8715;DHT22;4394;51.208;8.904;2023-01-24T05:44:04;3.20;99.90
8715;DHT22;4394;51.208;8.904;2023-01-24T05:46:54;3.20;99.90
8715;DHT22;4394;51.208;8.904;2023-01-24T05:49:44;3.20;99.90
8715;DHT22;4394;51.208;8.904;2023-01-24T05:52:32;3.10;99.90
8715;DHT22;4394;51.208;8.904;2023-01-24T05:55:20;3.10;99.90
8715;DHT22;4394;51.208;8.904;2023-01-24T05:58:08;3.20;99.90
8715;DHT22;4394;51.208;8.904;2023-01-24T06:00:56;3.20;99.90
8715;DHT22;4394;51.208;8.904;2023-01-24T06:03:45;3.20;99.90
8715;DHT22;4394;51.208;8.904;2023-01-24T06:06:35;3.20;99.90
8715;DHT22;4394;51.208;8.904;2023-01-24T06:09:23;3.20;99.90
8715;DHT22;4394;51.208;8.904;2023-01-24T06:12:11;3.20;99.90
8715;DHT22;4394;51.208;8.904;2023-01-24T06:14:59;3.20;99.90
8715;DHT22;4394;51.208;8.904;2023-01-24T06:17:47;3.20;99.90
8715;DHT22;4394;51.208;8.904;2023-01-24T06:20:36;3.10;99.90
8715;DHT22;4394;51.208;8.904;2023-01-24T06:23:27;3.10;99.90
8715;DHT22;4394;51.208;8.904;2023-01-24T06:26:15;3.00;99.90
8715;DHT22;4394;51.208;8.904;2023-01-24T06:29:04;3.10;99.90
8715;DHT22;4394;51.208;8.904;2023-01-24T06:32:00;3.00;99.90
8715;DHT22;4394;51.208;8.904;2023-01-24T06:35:05;3.10;99.90
8715;DHT22;4394;51.208;8.904;2023-01-24T06:37:55;3.10;99.90
8715;DHT22;4394;51.208;8.904;2023-01-24T06:40:46;3.10;99.90
8715;DHT22;4394;51.208;8.904;2023-01-24T06:43:36;3.10;99.90
8715;DHT22;4394;51.208;8.904;2023-01-24T06:46:24;3.10;99.90
8715;DHT22;4394;51.208;8.904;2023-01-24T06:49:12;3.10;99.90
8715;DHT22;4394;51.208;8.904;2023-01-24T06:52:00;3.10;99.90
8715;DHT22;4394;51.208;8.904;2023-01-24T06:54:48;3.10;99.90
8715;DHT22;4394;51.208;8.904;2023-01-24T06:57:37;3.10;99.90
8715;DHT22;4394;51.208;8.904;2023-01-24T07:00:27;3.10;99.90
8715;DHT22;4394;51.208;8.904;2023-01-24T07:03:15;3.10;99.90
8715;DHT22;4394;51.208;8.904;2023-01-24T07:06:03;3.10;99.90
8715;DHT22;4394;51.208;8.904;2023-01-24T07:08:51;3.20;99.90
8715;DHT22;4394;51.208;8.904;2023-01-24T07:11:39;3.10;99.90
8715;DHT22;4394;51.208;8.904;2023-01-24T07:14:28;3.10;99.90
8715;DHT22;4394;51.208;8.904;2023-01-24T07:17:17;3.10;99.90
8715;DHT22;4394;51.208;8.904;2023-01-24T07:20:06;3.20;99.90
8715;DHT22;4394;51.208;8.904;2023-01-24T07:22:54;3.10;99.90
8715;DHT22;4394;51.208;8.904;2023-01-24T07:25:43;3.10;99.90
8715;DHT22;4394;51.208;8.904;2023-01-24T07:28:31;3.10;99.90
8715;DHT22;4394;51.208;8.904;2023-01-24T07:31:20;3.10;99.90
8715;DHT22;4394;51.208;8.904;2023-01-24T07:34:08;3.10;99.90
8715;DHT22;4394;51.208;8.904;2023-01-24T07:37:01;3.10;99.90
8715;DHT22;4394;51.208;8.904;2023-01-24T07:39:49;3.10;99.90
8715;DHT22;4394;51.208;8.904;2023-01-24T07:42:37;3.10;99.90
8715;DHT22;4394;51.208;8.904;2023-01-24T07:45:25;3.10;99.90
8715;DHT22;4394;51.208;8.904;2023-01-24T07:48:14;3.10;99.90
8715;DHT22;4394;51.208;8.904;2023-01-24T07:51:03;3.10;99.90
8715;DHT22;4394;51.208;8.904;2023-01-24T07:53:51;3.00;99.90
8715;DHT22;4394;51.208;8.904;2023-01-24T07:56:39;3.10;99.90
8715;DHT22;4394;51.208;8.904;2023-01-24T07:59:27;3.10;99.90
8715;DHT22;4394;51.208;8.904;2023-01-24T08:02:24;3.10;99.90
8715;DHT22;4394;51.208;8.904;2023-01-24T08:05:13;3.10;99.90
8715;DHT22;4394;51.208;8.904;2023-01-24T08:08:01;3.10;99.90
8715;DHT22;4394;51.208;8.904;2023-01-24T08:10:49;3.10;99.90
8715;DHT22;4394;51.208;8.904;2023-01-24T08:13:38;3.10;99.90
8715;DHT22;4394;51.208;8.904;2023-01-24T08:16:25;3.10;99.90
8715;DHT22;4394;51.208;8.904;2023-01-24T08:19:14;3.10;99.90
8715;DHT22;4394;51.208;8.904;2023-01-24T08:22:23;3.20;99.90
8715;DHT22;4394;51.208;8.904;2023-01-24T08:25:11;3.10;99.90
8715;DHT22;4394;51.208;8.904;2023-01-24T08:27:59;3.10;99.90
8715;DHT22;4394;51.208;8.904;2023-01-24T08:30:48;3.20;99.90
8715;DHT22;4394;51.208;8.904;2023-01-24T08:33:36;3.20;99.90
8715;DHT22;4394;51.208;8.904;2023-01-24T08:36:24;3.20;99.90
8715;DHT22;4394;51.208;8.904;2023-01-24T08:39:14;3.20;99.90
8715;DHT22;4394;51.208;8.904;2023-01-24T08:42:10;3.20;99.90
8715;DHT22;4394;51.208;8.904;2023-01-24T08:44:58;3.20;99.90
8715;DHT22;4394;51.208;8.904;2023-01-24T08:47:51;3.20;99.90
8715;DHT22;4394;51.208;8.904;2023-01-24T08:50:39;3.20;99.90
8715;DHT22;4394;51.208;8.904;2023-01-24T08:53:30;3.20;99.90
8715;DHT22;4394;51.208;8.904;2023-01-24T08:56:22;3.30;99.90
8715;DHT22;4394;51.208;8.904;2023-01-24T08:59:10;3.30;99.90
8715;DHT22;4394;51.208;8.904;2023-01-24T09:01:58;3.40;99.90
8715;DHT22;4394;51.208;8.904;2023-01-24T09:04:48;3.30;99.90
8715;DHT22;4394;51.208;8.904;2023-01-24T09:07:36;3.30;99.90
8715;DHT22;4394;51.208;8.904;2023-01-24T09:10:25;3.40;99.90
8715;DHT22;4394;51.208;8.904;2023-01-24T09:13:15;3.40;99.90
8715;DHT22;4394;51.208;8.904;2023-01-24T09:16:03;3.40;99.90
8715;DHT22;4394;51.208;8.904;2023-01-24T09:18:52;3.40;99.90
8715;DHT22;4394;51.208;8.904;2023-01-24T09:21:40;3.40;99.90
8715;DHT22;4394;51.208;8.904;2023-01-24T09:24:30;3.50;99.90
8715;DHT22;4394;51.208;8.904;2023-01-24T09:27:18;3.50;99.90
8715;DHT22;4394;51.208;8.904;2023-01-24T09:30:09;3.50;99.90
8715;DHT22;4394;51.208;8.904;2023-01-24T09:32:57;3.50;99.90
8715;DHT22;4394;51.208;8.904;2023-01-24T09:35:53;3.50;99.90
8715;DHT22;4394;51.208;8.904;2023-01-24T09:38:41;3.60;99.90
8715;DHT22;4394;51.208;8.904;2023-01-24T09:41:53;3.60;99.90
8715;DHT22;4394;51.208;8.904;2023-01-24T09:45:10;3.60;99.90
8715;DHT22;4394;51.208;8.904;2023-01-24T09:48:06;3.60;99.90
8715;DHT22;4394;51.208;8.904;2023-01-24T09:51:03;3.60;99.90
8715;DHT22;4394;51.208;8.904;2023-01-24T09:53:54;3.60;99.90
8715;DHT22;4394;51.208;8.904;2023-01-24T09:56:45;3.60;99.90
8715;DHT22;4394;51.208;8.904;2023-01-24T09:59:39;3.60;99.90
8715;DHT22;4394;51.208;8.904;2023-01-24T10:02:29;3.60;99.90
8715;DHT22;4394;51.208;8.904;2023-01-24T10:05:20;3.60;99.90
8715;DHT22;4394;51.208;8.904;2023-01-24T10:08:26;3.60;99.90
8715;DHT22;4394;51.208;8.904;2023-01-24T10:11:25;3.60;99.90
8715;DHT22;4394;51.208;8.904;2023-01-24T10:14:34;3.70;99.90
8715;DHT22;4394;51.208;8.904;2023-01-24T10:17:55;3.80;99.90
8715;DHT22;4394;51.208;8.904;2023-01-24T10:24:09;3.80;99.90
8715;DHT22;4394;51.208;8.904;2023-01-24T10:27:01;3.80;99.90
8715;DHT22;4394;51.208;8.904;2023-01-24T10:30:12;3.80;99.90
8715;DHT22;4394;51.208;8.904;2023-01-24T10:33:05;3.80;99.90
8715;DHT22;4394;51.208;8.904;2023-01-24T10:36:01;3.90;99.90
8715;DHT22;4394;51.208;8.904;2023-01-24T10:38:51;3.90;99.90
8715;DHT22;4394;51.208;8.904;2023-01-24T10:41:39;3.90;99.90
8715;DHT22;4394;51.208;8.904;2023-01-24T10:44:29;3.80;99.90
8715;DHT22;4394;51.208;8.904;2023-01-24T10:47:39;3.80;99.90
8715;DHT22;4394;51.208;8.904;2023-01-24T10:50:35;3.90;99.90
8715;DHT22;4394;51.208;8.904;2023-01-24T10:53:28;3.90;99.90
8715;DHT22;4394;51.208;8.904;2023-01-24T10:56:19;3.90;99.90
8715;DHT22;4394;51.208;8.904;2023-01-24T10:59:10;4.00;99.90
8715;DHT22;4394;51.208;8.904;2023-01-24T11:01:59;4.00;99.90
8715;DHT22;4394;51.208;8.904;2023-01-24T11:04:52;4.00;99.90
8715;DHT22;4394;51.208;8.904;2023-01-24T11:07:51;4.00;99.90
8715;DHT22;4394;51.208;8.904;2023-01-24T11:10:41;3.90;99.90
8715;DHT22;4394;51.208;8.904;2023-01-24T11:13:34;3.90;99.90
8715;DHT22;4394;51.208;8.904;2023-01-24T11:16:26;4.00;99.90
8715;DHT22;4394;51.208;8.904;2023-01-24T11:19:25;4.00;99.90
8715;DHT22;4394;51.208;8.904;2023-01-24T11:22:21;4.00;99.90
8715;DHT22;4394;51.208;8.904;2023-01-24T11:25:15;4.10;99.90
8715;DHT22;4394;51.208;8.904;2023-01-24T11:28:03;4.10;99.90
8715;DHT22;4394;51.208;8.904;2023-01-24T11:30:51;4.10;99.90
8715;DHT22;4394;51.208;8.904;2023-01-24T11:33:58;4.10;99.90
8715;DHT22;4394;51.208;8.904;2023-01-24T11:36:55;4.10;99.90
8715;DHT22;4394;51.208;8.904;2023-01-24T11:39:52;4.00;99.90
8715;DHT22;4394;51.208;8.904;2023-01-24T11:42:53;4.00;99.90
8715;DHT22;4394;51.208;8.904;2023-01-24T11:46:08;4.10;99.90
8715;DHT22;4394;51.208;8.904;2023-01-24T11:49:14;4.10;99.90
8715;DHT22;4394;51.208;8.904;2023-01-24T11:52:26;4.10;99.90
8715;DHT22;4394;51.208;8.904;2023-01-24T11:55:28;4.20;99.90
8715;DHT22;4394;51.208;8.904;2023-01-24T11:58:33;4.20;99.90
8715;DHT22;4394;51.208;8.904;2023-01-24T12:01:32;4.20;99.90
8715;DHT22;4394;51.208;8.904;2023-01-24T12:07:56;4.20;99.90
8715;DHT22;4394;51.208;8.904;2023-01-24T12:10:59;4.20;99.90
8715;DHT22;4394;51.208;8.904;2023-01-24T12:21:05;4.20;99.90
8715;DHT22;4394;51.208;8.904;2023-01-24T12:23:59;4.20;99.90
8715;DHT22;4394;51.208;8.904;2023-01-24T12:26:50;4.20;99.90
8715;DHT22;4394;51.208;8.904;2023-01-24T12:29:42;4.20;99.90
8715;DHT22;4394;51.208;8.904;2023-01-24T12:32:36;4.20;99.90
8715;DHT22;4394;51.208;8.904;2023-01-24T12:35:29;4.20;99.90
8715;DHT22;4394;51.208;8.904;2023-01-24T12:38:24;4.20;99.90
8715;DHT22;4394;51.208;8.904;2023-01-24T12:41:24;4.20;99.90
8715;DHT22;4394;51.208;8.904;2023-01-24T12:44:25;4.30;99.90
8715;DHT22;4394;51.208;8.904;2023-01-24T12:47:22;4.20;99.90
8715;DHT22;4394;51.208;8.904;2023-01-24T12:50:18;4.20;99.90
8715;DHT22;4394;51.208;8.904;2023-01-24T12:53:16;4.20;99.90
8715;DHT22;4394;51.208;8.904;2023-01-24T12:56:12;4.20;99.90
8715;DHT22;4394;51.208;8.904;2023-01-24T12:59:01;4.20;99.90
8715;DHT22;4394;51.208;8.904;2023-01-24T13:02:06;4.20;99.90
8715;DHT22;4394;51.208;8.904;2023-01-24T13:05:22;4.20;99.90
8715;DHT22;4394;51.208;8.904;2023-01-24T13:08:23;4.20;99.90
8715;DHT22;4394;51.208;8.904;2023-01-24T13:11:19;4.20;99.90
8715;DHT22;4394;51.208;8.904;2023-01-24T13:14:15;4.20;99.90
8715;DHT22;4394;51.208;8.904;2023-01-24T13:17:16;4.20;99.90
8715;DHT22;4394;51.208;8.904;2023-01-24T13:27:11;4.10;99.90
8715;DHT22;4394;51.208;8.904;2023-01-24T13:30:17;4.10;99.90
8715;DHT22;4394;51.208;8.904;2023-01-24T13:33:12;4.00;99.90
8715;DHT22;4394;51.208;8.904;2023-01-24T13:36:04;4.00;99.90
8715;DHT22;4394;51.208;8.904;2023-01-24T13:38:55;4.10;99.90
8715;DHT22;4394;51.208;8.904;2023-01-24T13:41:44;4.10;99.90
8715;DHT22;4394;51.208;8.904;2023-01-24T13:44:32;4.10;99.90
8715;DHT22;4394;51.208;8.904;2023-01-24T13:47:25;4.10;99.90
8715;DHT22;4394;51.208;8.904;2023-01-24T13:50:18;4.00;99.90
8715;DHT22;4394;51.208;8.904;2023-01-24T13:53:07;4.00;99.90
8715;DHT22;4394;51.208;8.904;2023-01-24T13:56:04;4.10;99.90
8715;DHT22;4394;51.208;8.904;2023-01-24T13:58:52;4.00;99.90
8715;DHT22;4394;51.208;8.904;2023-01-24T14:01:44;4.10;99.90
8715;DHT22;4394;51.208;8.904;2023-01-24T14:04:39;4.00;99.90
8715;DHT22;4394;51.208;8.904;2023-01-24T14:07:29;4.00;99.90
8715;DHT22;4394;51.208;8.904;2023-01-24T14:10:18;4.00;99.90
8715;DHT22;4394;51.208;8.904;2023-01-24T14:13:43;4.00;99.90
8715;DHT22;4394;51.208;8.904;2023-01-24T14:17:00;4.00;99.90
8715;DHT22;4394;51.208;8.904;2023-01-24T14:19:49;4.00;99.90
8715;DHT22;4394;51.208;8.904;2023-01-24T14:22:38;3.90;99.90
8715;DHT22;4394;51.208;8.904;2023-01-24T14:25:44;3.90;99.90
8715;DHT22;4394;51.208;8.904;2023-01-24T14:28:40;3.90;99.90
8715;DHT22;4394;51.208;8.904;2023-01-24T14:31:35;3.90;99.90
8715;DHT22;4394;51.208;8.904;2023-01-24T14:34:27;3.80;99.90
8715;DHT22;4394;51.208;8.904;2023-01-24T14:37:17;3.80;99.90
8715;DHT22;4394;51.208;8.904;2023-01-24T14:40:20;3.80;99.90
8715;DHT22;4394;51.208;8.904;2023-01-24T14:43:09;3.80;99.90
8715;DHT22;4394;51.208;8.904;2023-01-24T14:46:10;3.80;99.90
8715;DHT22;4394;51.208;8.904;2023-01-24T14:48:58;3.80;99.90
8715;DHT22;4394;51.208;8.904;2023-01-24T14:51:46;3.70;99.90
8715;DHT22;4394;51.208;8.904;2023-01-24T14:54:34;3.70;99.90
8715;DHT22;4394;51.208;8.904;2023-01-24T14:57:24;3.70;99.90
8715;DHT22;4394;51.208;8.904;2023-01-24T15:00:15;3.70;99.90
8715;DHT22;4394;51.208;8.904;2023-01-24T15:03:05;3.80;99.90
8715;DHT22;4394;51.208;8.904;2023-01-24T15:05:56;3.80;99.90
8715;DHT22;4394;51.208;8.904;2023-01-24T15:08:45;3.80;99.90
8715;DHT22;4394;51.208;8.904;2023-01-24T15:11:35;3.70;99.90
8715;DHT22;4394;51.208;8.904;2023-01-24T15:14:25;3.70;99.90
8715;DHT22;4394;51.208;8.904;2023-01-24T15:17:14;3.70;99.90
8715;DHT22;4394;51.208;8.904;2023-01-24T15:20:10;3.70;99.90
8715;DHT22;4394;51.208;8.904;2023-01-24T15:23:00;3.70;99.90
8715;DHT22;4394;51.208;8.904;2023-01-24T15:25:49;3.70;99.90
8715;DHT22;4394;51.208;8.904;2023-01-24T15:28:37;3.70;99.90
8715;DHT22;4394;51.208;8.904;2023-01-24T15:31:29;3.60;99.90
8715;DHT22;4394;51.208;8.904;2023-01-24T15:34:19;3.60;99.90
8715;DHT22;4394;51.208;8.904;2023-01-24T15:37:13;3.60;99.90
8715;DHT22;4394;51.208;8.904;2023-01-24T15:40:01;3.60;99.90
8715;DHT22;4394;51.208;8.904;2023-01-24T15:42:49;3.60;99.90
8715;DHT22;4394;51.208;8.904;2023-01-24T15:45:55;3.60;99.90
8715;DHT22;4394;51.208;8.904;2023-01-24T15:49:14;3.50;99.90
8715;DHT22;4394;51.208;8.904;2023-01-24T15:52:21;3.50;99.90
8715;DHT22;4394;51.208;8.904;2023-01-24T15:55:09;3.50;99.90
8715;DHT22;4394;51.208;8.904;2023-01-24T15:57:57;3.50;99.90
8715;DHT22;4394;51.208;8.904;2023-01-24T16:00:52;3.50;99.90
8715;DHT22;4394;51.208;8.904;2023-01-24T16:03:41;3.50;99.90
8715;DHT22;4394;51.208;8.904;2023-01-24T16:06:29;3.40;99.90
8715;DHT22;4394;51.208;8.904;2023-01-24T16:09:18;3.40;99.90
8715;DHT22;4394;51.208;8.904;2023-01-24T16:12:09;3.40;99.90
8715;DHT22;4394;51.208;8.904;2023-01-24T16:14:59;3.30;99.90
8715;DHT22;4394;51.208;8.904;2023-01-24T16:17:55;3.30;99.90
8715;DHT22;4394;51.208;8.904;2023-01-24T16:20:44;3.30;99.90
8715;DHT22;4394;51.208;8.904;2023-01-24T16:23:32;3.30;99.90
8715;DHT22;4394;51.208;8.904;2023-01-24T16:26:23;3.20;99.90
8715;DHT22;4394;51.208;8.904;2023-01-24T16:29:16;3.20;99.90
8715;DHT22;4394;51.208;8.904;2023-01-24T16:32:15;3.20;99.90
8715;DHT22;4394;51.208;8.904;2023-01-24T16:35:06;3.20;99.90
8715;DHT22;4394;51.208;8.904;2023-01-24T16:37:54;3.20;99.90
8715;DHT22;4394;51.208;8.904;2023-01-24T16:40:43;3.20;99.90
8715;DHT22;4394;51.208;8.904;2023-01-24T16:43:33;3.20;99.90
8715;DHT22;4394;51.208;8.904;2023-01-24T16:46:21;3.20;99.90
8715;DHT22;4394;51.208;8.904;2023-01-24T16:49:11;3.20;99.90
8715;DHT22;4394;51.208;8.904;2023-01-24T16:51:59;3.20;99.90
8715;DHT22;4394;51.208;8.904;2023-01-24T16:55:05;3.20;99.90
8715;DHT22;4394;51.208;8.904;2023-01-24T16:57:53;3.20;99.90
8715;DHT22;4394;51.208;8.904;2023-01-24T17:00:43;3.10;99.90
8715;DHT22;4394;51.208;8.904;2023-01-24T17:03:31;3.20;99.90
8715;DHT22;4394;51.208;8.904;2023-01-24T17:06:19;3.20;99.90
8715;DHT22;4394;51.208;8.904;2023-01-24T17:09:08;3.10;99.90
8715;DHT22;4394;51.208;8.904;2023-01-24T17:11:56;3.20;99.90
8715;DHT22;4394;51.208;8.904;2023-01-24T17:14:59;3.20;99.90
8715;DHT22;4394;51.208;8.904;2023-01-24T17:17:49;3.20;99.90
8715;DHT22;4394;51.208;8.904;2023-01-24T17:20:37;3.20;99.90
8715;DHT22;4394;51.208;8.904;2023-01-24T17:23:25;3.20;99.90
8715;DHT22;4394;51.208;8.904;2023-01-24T17:26:15;3.10;99.90
8715;DHT22;4394;51.208;8.904;2023-01-24T17:29:03;3.20;99.90
8715;DHT22;4394;51.208;8.904;2023-01-24T17:31:51;3.10;99.90
8715;DHT22;4394;51.208;8.904;2023-01-24T17:34:41;3.10;99.90
8715;DHT22;4394;51.208;8.904;2023-01-24T17:37:29;3.10;99.90
8715;DHT22;4394;51.208;8.904;2023-01-24T17:40:17;3.10;99.90
8715;DHT22;4394;51.208;8.904;2023-01-24T17:43:05;3.10;99.90
8715;DHT22;4394;51.208;8.904;2023-01-24T17:45:54;3.10;99.90
8715;DHT22;4394;51.208;8.904;2023-01-24T17:48:42;3.00;99.90
8715;DHT22;4394;51.208;8.904;2023-01-24T17:51:32;3.00;99.90
8715;DHT22;4394;51.208;8.904;2023-01-24T17:54:23;3.10;99.90
8715;DHT22;4394;51.208;8.904;2023-01-24T17:57:11;3.00;99.90
8715;DHT22;4394;51.208;8.904;2023-01-24T17:59:59;3.00;99.90
8715;DHT22;4394;51.208;8.904;2023-01-24T18:02:47;3.20;99.90
8715;DHT22;4394;51.208;8.904;2023-01-24T18:05:35;3.10;99.90
8715;DHT22;4394;51.208;8.904;2023-01-24T18:08:24;3.10;99.90
8715;DHT22;4394;51.208;8.904;2023-01-24T18:11:14;3.10;99.90
8715;DHT22;4394;51.208;8.904;2023-01-24T18:14:03;3.10;99.90
8715;DHT22;4394;51.208;8.904;2023-01-24T18:16:51;3.10;99.90
8715;DHT22;4394;51.208;8.904;2023-01-24T18:19:39;3.10;99.90
8715;DHT22;4394;51.208;8.904;2023-01-24T18:22:27;3.10;99.90
8715;DHT22;4394;51.208;8.904;2023-01-24T18:25:16;3.10;99.90
8715;DHT22;4394;51.208;8.904;2023-01-24T18:28:04;3.10;99.90
8715;DHT22;4394;51.208;8.904;2023-01-24T18:30:53;3.00;99.90
8715;DHT22;4394;51.208;8.904;2023-01-24T18:33:41;3.00;99.90
8715;DHT22;4394;51.208;8.904;2023-01-24T18:36:30;3.00;99.90
8715;DHT22;4394;51.208;8.904;2023-01-24T18:39:18;3.00;99.90
8715;DHT22;4394;51.208;8.904;2023-01-24T18:42:07;3.10;99.90
8715;DHT22;4394;51.208;8.904;2023-01-24T18:44:55;3.00;99.90
8715;DHT22;4394;51.208;8.904;2023-01-24T18:47:44;3.00;99.90
8715;DHT22;4394;51.208;8.904;2023-01-24T18:50:32;3.00;99.90
8715;DHT22;4394;51.208;8.904;2023-01-24T18:53:20;3.00;99.90
8715;DHT22;4394;51.208;8.904;2023-01-24T18:56:08;3.00;99.90
8715;DHT22;4394;51.208;8.904;2023-01-24T18:58:58;3.00;99.90
8715;DHT22;4394;51.208;8.904;2023-01-24T19:01:46;3.00;99.90
8715;DHT22;4394;51.208;8.904;2023-01-24T19:04:34;2.90;99.90
8715;DHT22;4394;51.208;8.904;2023-01-24T19:07:22;2.90;99.90
8715;DHT22;4394;51.208;8.904;2023-01-24T19:10:11;2.80;99.90
8715;DHT22;4394;51.208;8.904;2023-01-24T19:12:59;2.80;99.90
8715;DHT22;4394;51.208;8.904;2023-01-24T19:15:49;2.80;99.90
8715;DHT22;4394;51.208;8.904;2023-01-24T19:18:37;2.80;99.90
8715;DHT22;4394;51.208;8.904;2023-01-24T19:21:25;2.80;99.90